Time;durP1;ratioP1;P1;durP2;ratioP2;P2;SDS_P1;SDS_P2;PMS_P1;PMS_P2;Temp;Humidity;BMP_temperature;BMP_pressure;BME280_temperature;BME280_humidity;BME280_pressure;Samples;Min_cycle;Max_cycle;Signal;HPM_P1;HPM_P2
2022/04/08 00:00:45;;;;;;;5.53;1.40;;;10.00;61.00;;;;;;5039389;28;20472;-71
2022/04/08 00:03:31;;;;;;;6.97;1.33;;;10.00;57.50;;;;;;5045147;28;20453;-71
2022/04/08 00:06:17;;;;;;;3.87;1.50;;;10.00;57.70;;;;;;5049700;28;20519;-71
2022/04/08 00:09:03;;;;;;;9.00;1.67;;;10.00;59.40;;;;;;5037521;28;20603;-71
2022/04/08 00:11:51;;;;;;;5.73;1.73;;;9.90;58.00;;;;;;5041270;28;20411;-71
2022/04/08 00:14:37;;;;;;;12.83;1.87;;;9.90;59.00;;;;;;5040593;28;20915;-71
2022/04/08 00:17:22;;;;;;;6.50;1.53;;;9.90;60.70;;;;;;5037546;28;20505;-71
2022/04/08 00:20:08;;;;;;;5.40;1.40;;;9.90;60.00;;;;;;5042600;28;20497;-71
2022/04/08 00:22:54;;;;;;;5.37;1.40;;;9.80;61.80;;;;;;5039364;28;20539;-71
2022/04/08 00:25:40;;;;;;;5.53;1.40;;;9.80;62.40;;;;;;5044039;28;21000;-71
2022/04/08 00:28:27;;;;;;;6.40;1.53;;;9.90;63.10;;;;;;5045198;28;20805;-71
2022/04/08 00:31:12;;;;;;;4.63;1.40;;;9.90;63.60;;;;;;5041750;28;20457;-71
2022/04/08 00:33:58;;;;;;;5.77;1.60;;;9.90;65.30;;;;;;5044709;28;20424;-71
2022/04/08 00:36:44;;;;;;;8.30;1.53;;;10.00;64.90;;;;;;5046655;28;20544;-71
2022/04/08 00:39:30;;;;;;;11.37;2.27;;;10.10;64.40;;;;;;5040191;28;20789;-71
2022/04/08 00:42:15;;;;;;;5.67;1.67;;;10.00;67.10;;;;;;5044837;28;20578;-71
2022/04/08 00:45:03;;;;;;;5.67;2.10;;;10.00;66.50;;;;;;5042926;28;20427;-71
2022/04/08 00:47:48;;;;;;;9.50;1.93;;;9.90;67.30;;;;;;5037429;28;20469;-71
2022/04/08 00:50:34;;;;;;;6.83;2.00;;;9.80;68.40;;;;;;5037174;28;20426;-71
2022/04/08 00:53:21;;;;;;;7.93;2.20;;;9.90;69.90;;;;;;5045094;28;20958;-71
2022/04/08 00:56:07;;;;;;;9.33;2.07;;;9.90;73.90;;;;;;5039385;28;20461;-71
2022/04/08 00:58:52;;;;;;;9.00;1.83;;;9.70;75.60;;;;;;5045921;28;20453;-71
2022/04/08 01:01:39;;;;;;;10.50;1.73;;;9.70;76.10;;;;;;5041923;28;20463;-71
2022/04/08 01:04:27;;;;;;;6.47;1.77;;;9.70;76.40;;;;;;5045264;28;20433;-71
2022/04/08 01:07:12;;;;;;;5.77;1.50;;;9.60;76.30;;;;;;5038383;28;21019;-71
2022/04/08 01:09:58;;;;;;;5.00;1.60;;;9.60;76.40;;;;;;5043792;28;20422;-71
2022/04/08 01:12:44;;;;;;;10.00;1.60;;;9.60;76.30;;;;;;5044603;28;20432;-71
2022/04/08 01:15:30;;;;;;;7.63;2.10;;;9.60;76.30;;;;;;5038674;28;20513;-72
2022/04/08 01:18:17;;;;;;;9.13;1.77;;;9.60;78.90;;;;;;5042700;28;20422;-71
2022/04/08 01:21:04;;;;;;;10.47;2.50;;;9.60;79.80;;;;;;5036387;28;20540;-71
2022/04/08 01:23:53;;;;;;;9.57;2.07;;;9.50;76.60;;;;;;5039202;28;20407;-71
2022/04/08 01:26:41;;;;;;;6.50;2.03;;;9.50;78.60;;;;;;5040645;28;20595;-71
2022/04/08 01:29:27;;;;;;;12.83;2.23;;;9.60;76.70;;;;;;5045831;28;20440;-71
2022/04/08 01:32:12;;;;;;;7.90;2.20;;;9.60;76.30;;;;;;5047046;28;20472;-71
2022/04/08 01:34:58;;;;;;;10.43;2.10;;;9.50;74.40;;;;;;5050695;28;20491;-71
2022/04/08 01:37:44;;;;;;;7.20;2.10;;;9.60;75.60;;;;;;5043744;28;21035;-71
2022/04/08 01:40:29;;;;;;;5.40;2.00;;;9.60;76.30;;;;;;5042820;28;20878;-71
2022/04/08 01:43:16;;;;;;;4.00;1.20;;;9.60;75.90;;;;;;5041163;28;20448;-71
2022/04/08 01:46:02;;;;;;;7.33;1.63;;;9.60;77.60;;;;;;5047343;28;20994;-71
2022/04/08 01:48:51;;;;;;;8.10;2.20;;;9.60;76.50;;;;;;5049248;28;20416;-71
2022/04/08 01:51:36;;;;;;;9.67;2.00;;;9.50;76.20;;;;;;5046609;28;20418;-71
2022/04/08 01:54:22;;;;;;;7.30;2.00;;;9.50;77.60;;;;;;5040832;28;20427;-71
2022/04/08 01:57:08;;;;;;;14.83;2.83;;;9.50;78.00;;;;;;5044887;28;20514;-71
2022/04/08 01:59:55;;;;;;;10.70;2.60;;;9.50;77.20;;;;;;5043439;28;20418;-71
2022/04/08 02:02:40;;;;;;;18.87;2.40;;;9.60;78.50;;;;;;5042882;28;20890;-71
2022/04/08 02:05:26;;;;;;;10.97;2.27;;;9.60;79.50;;;;;;5043601;28;20418;-71
2022/04/08 02:08:12;;;;;;;8.47;2.33;;;9.70;78.90;;;;;;5044009;28;20416;-71
2022/04/08 02:10:58;;;;;;;11.30;1.90;;;9.60;77.80;;;;;;5042078;28;20411;-71
2022/04/08 02:13:43;;;;;;;6.00;1.80;;;9.50;79.30;;;;;;5046299;28;20465;-71
2022/04/08 02:16:31;;;;;;;7.23;1.40;;;9.50;79.30;;;;;;5045965;28;20976;-71
2022/04/08 02:19:16;;;;;;;5.20;1.73;;;9.50;79.50;;;;;;5045974;28;20511;-71
2022/04/08 02:22:03;;;;;;;8.57;2.27;;;9.40;80.90;;;;;;5042142;28;20550;-71
2022/04/08 02:24:50;;;;;;;13.50;2.73;;;9.40;82.30;;;;;;5049554;28;21071;-71
2022/04/08 02:27:35;;;;;;;8.33;1.90;;;9.50;84.70;;;;;;5044403;28;20483;-71
2022/04/08 02:30:22;;;;;;;13.27;1.53;;;9.50;84.40;;;;;;5040569;28;21284;-71
2022/04/08 02:33:08;;;;;;;9.33;2.80;;;9.40;85.10;;;;;;5047280;28;20477;-71
2022/04/08 02:35:54;;;;;;;8.13;1.97;;;9.40;85.70;;;;;;5044666;28;20456;-71
2022/04/08 02:38:40;;;;;;;8.10;2.30;;;9.40;86.70;;;;;;5041986;28;20766;-71
2022/04/08 02:41:26;;;;;;;8.87;2.30;;;9.40;86.50;;;;;;5045631;28;20479;-71
2022/04/08 02:44:11;;;;;;;10.40;2.17;;;9.50;86.50;;;;;;5041342;28;20816;-71
2022/04/08 02:46:58;;;;;;;8.93;2.33;;;9.40;85.90;;;;;;5045112;28;20985;-71
2022/04/08 02:49:45;;;;;;;24.90;2.77;;;9.40;87.00;;;;;;5042551;28;20451;-71
2022/04/08 02:52:30;;;;;;;4.70;1.93;;;9.40;86.60;;;;;;5045429;28;20437;-71
2022/04/08 02:55:16;;;;;;;15.17;2.20;;;9.40;87.30;;;;;;5049446;28;20413;-71
2022/04/08 02:58:02;;;;;;;8.43;2.33;;;9.40;87.40;;;;;;5044510;28;20494;-71
2022/04/08 03:00:48;;;;;;;12.93;2.97;;;9.50;88.40;;;;;;5043565;28;20455;-71
2022/04/08 03:03:34;;;;;;;6.63;2.13;;;9.50;87.10;;;;;;5045544;28;20501;-71
2022/04/08 03:06:21;;;;;;;11.97;3.07;;;9.50;88.50;;;;;;5044535;28;20475;-71
2022/04/08 03:09:06;;;;;;;13.27;2.80;;;9.60;87.60;;;;;;5041583;28;20649;-71
2022/04/08 03:11:52;;;;;;;10.07;2.53;;;9.50;85.40;;;;;;5046677;28;20439;-71
2022/04/08 03:14:38;;;;;;;5.87;1.53;;;9.50;86.20;;;;;;5040988;28;20593;-71
2022/04/08 03:17:24;;;;;;;6.80;2.33;;;9.50;86.90;;;;;;5046517;28;21016;-71
2022/04/08 03:20:10;;;;;;;13.53;2.40;;;9.50;85.90;;;;;;5038494;28;20441;-71
2022/04/08 03:22:57;;;;;;;9.60;2.00;;;9.40;88.40;;;;;;5042003;28;20451;-71
2022/04/08 03:25:43;;;;;;;8.43;2.63;;;9.30;87.70;;;;;;5047210;28;20545;-71
2022/04/08 03:28:31;;;;;;;10.80;2.23;;;9.40;88.90;;;;;;5041835;28;20932;-71
2022/04/08 03:31:17;;;;;;;7.30;2.00;;;9.30;88.80;;;;;;5043663;28;21094;-71
2022/04/08 03:34:03;;;;;;;9.10;2.33;;;9.40;89.80;;;;;;5043493;28;20454;-71
2022/04/08 03:36:49;;;;;;;7.83;1.90;;;9.40;89.10;;;;;;5042812;28;20453;-71
2022/04/08 03:39:36;;;;;;;6.07;2.93;;;9.40;89.20;;;;;;5042923;28;20464;-71
2022/04/08 03:42:23;;;;;;;9.93;2.07;;;9.40;89.50;;;;;;5043891;28;20443;-71
2022/04/08 03:45:09;;;;;;;12.30;2.20;;;9.40;90.30;;;;;;5045409;28;20427;-71
2022/04/08 03:47:54;;;;;;;4.47;2.40;;;9.40;90.30;;;;;;5038812;28;20525;-71
2022/04/08 03:50:40;;;;;;;6.23;2.10;;;9.30;90.20;;;;;;5048041;28;20448;-71
2022/04/08 03:53:25;;;;;;;7.10;2.23;;;9.20;90.50;;;;;;5043963;28;20933;-71
2022/04/08 03:56:13;;;;;;;6.60;2.00;;;9.20;91.60;;;;;;5041004;28;21003;-71
2022/04/08 03:58:58;;;;;;;9.73;2.33;;;9.20;91.80;;;;;;5038593;28;20505;-71
2022/04/08 04:01:45;;;;;;;8.83;2.23;;;9.30;92.30;;;;;;5044607;28;20456;-71
2022/04/08 04:04:30;;;;;;;8.10;2.57;;;9.30;92.10;;;;;;5044359;28;20448;-71
2022/04/08 04:07:17;;;;;;;10.37;2.20;;;9.20;92.10;;;;;;5039893;28;20451;-71
2022/04/08 04:10:03;;;;;;;11.30;2.40;;;9.20;93.30;;;;;;5044588;28;20629;-71
2022/04/08 04:12:50;;;;;;;9.40;1.93;;;9.10;93.50;;;;;;5044730;28;20411;-71
2022/04/08 04:15:35;;;;;;;10.30;2.70;;;9.10;93.50;;;;;;5042472;28;20448;-71
2022/04/08 04:18:21;;;;;;;6.87;1.60;;;9.10;93.60;;;;;;5043921;28;20423;-71
2022/04/08 04:21:08;;;;;;;22.53;3.23;;;9.00;93.80;;;;;;5040694;28;20512;-71
2022/04/08 04:23:54;;;;;;;7.80;2.37;;;9.00;95.00;;;;;;5047465;28;20440;-71
2022/04/08 04:26:39;;;;;;;11.37;1.83;;;8.90;94.30;;;;;;5042031;28;20553;-71
2022/04/08 04:29:26;;;;;;;10.00;3.30;;;9.00;95.10;;;;;;5043255;28;20451;-71
2022/04/08 04:32:12;;;;;;;12.20;1.80;;;9.00;95.00;;;;;;5045034;28;20440;-71
2022/04/08 04:35:06;;;;;;;10.23;2.57;;;8.90;94.90;;;;;;5040027;28;20927;-71
2022/04/08 04:37:52;;;;;;;12.33;2.43;;;8.90;95.00;;;;;;5040008;28;20453;-71
2022/04/08 04:40:37;;;;;;;7.73;2.30;;;8.80;95.20;;;;;;5045411;28;20444;-71
2022/04/08 04:43:22;;;;;;;10.93;1.80;;;8.90;96.10;;;;;;5043012;28;21202;-71
2022/04/08 04:46:09;;;;;;;11.93;2.73;;;9.00;96.40;;;;;;5042042;28;20426;-71
2022/04/08 04:48:55;;;;;;;7.43;2.00;;;9.10;96.30;;;;;;5043541;28;21045;-71
2022/04/08 04:51:40;;;;;;;9.30;1.87;;;9.10;95.50;;;;;;5047234;28;20800;-71
2022/04/08 04:54:26;;;;;;;6.80;1.73;;;9.10;95.30;;;;;;5040719;28;20435;-71
2022/04/08 04:57:11;;;;;;;5.43;1.70;;;9.10;95.30;;;;;;5041077;28;20530;-71
2022/04/08 04:59:57;;;;;;;7.40;2.23;;;9.10;95.80;;;;;;5041552;28;20911;-71
2022/04/08 05:02:44;;;;;;;8.63;2.30;;;9.10;95.30;;;;;;5045984;28;20453;-71
2022/04/08 05:05:30;;;;;;;12.43;2.47;;;9.10;95.60;;;;;;5046807;28;20557;-71
2022/04/08 05:08:16;;;;;;;8.73;2.87;;;9.10;95.30;;;;;;5040030;28;20454;-71
2022/04/08 05:11:02;;;;;;;7.00;1.77;;;9.10;95.70;;;;;;5040640;28;20440;-71
2022/04/08 05:13:47;;;;;;;7.80;2.20;;;9.00;96.50;;;;;;5045485;28;20490;-71
2022/04/08 05:16:33;;;;;;;11.70;2.57;;;8.90;97.10;;;;;;5038933;28;20442;-71
2022/04/08 05:19:20;;;;;;;12.07;2.20;;;8.90;97.10;;;;;;5044549;28;20583;-71
2022/04/08 05:22:06;;;;;;;12.23;2.47;;;9.00;97.90;;;;;;5043845;28;20467;-71
2022/04/08 05:24:51;;;;;;;10.77;3.80;;;8.90;97.80;;;;;;5041377;28;20455;-71
2022/04/08 05:27:38;;;;;;;8.33;2.30;;;8.80;98.30;;;;;;5042610;28;20513;-71
2022/04/08 05:30:23;;;;;;;9.63;1.90;;;8.90;99.10;;;;;;5043280;28;20418;-71
2022/04/08 05:33:09;;;;;;;11.37;3.00;;;8.90;99.90;;;;;;5041054;28;20407;-71
2022/04/08 05:35:56;;;;;;;11.17;2.47;;;8.90;99.90;;;;;;5040897;28;20608;-72
2022/04/08 05:38:42;;;;;;;5.90;2.10;;;9.00;99.90;;;;;;5042602;28;20426;-71
2022/04/08 05:41:27;;;;;;;8.53;3.00;;;9.10;99.90;;;;;;5044397;28;20812;-71
2022/04/08 05:44:13;;;;;;;10.83;2.00;;;9.20;99.90;;;;;;5042689;28;20841;-71
2022/04/08 05:46:59;;;;;;;9.73;2.30;;;9.30;99.90;;;;;;5044369;28;21007;-72
2022/04/08 05:49:44;;;;;;;6.90;2.37;;;9.30;99.90;;;;;;5041191;28;20464;-71
2022/04/08 05:52:31;;;;;;;8.70;2.70;;;9.20;99.90;;;;;;5043549;28;20418;-72
2022/04/08 05:55:17;;;;;;;13.03;2.70;;;9.00;99.90;;;;;;5040654;28;20417;-71
2022/04/08 05:58:02;;;;;;;12.03;3.80;;;9.00;99.90;;;;;;5049516;23;20501;-74
2022/04/08 06:00:48;;;;;;;12.20;2.63;;;9.00;99.90;;;;;;5027582;28;20443;-73
2022/04/08 06:03:34;;;;;;;14.87;3.67;;;9.00;99.90;;;;;;5028674;28;20471;-73
2022/04/08 06:06:20;;;;;;;9.30;3.80;;;9.00;99.90;;;;;;5024580;28;20510;-74
2022/04/08 06:09:07;;;;;;;9.10;2.50;;;9.10;99.90;;;;;;5029119;28;20424;-73
2022/04/08 06:11:53;;;;;;;10.30;2.50;;;9.20;99.90;;;;;;5027352;28;20416;-74
2022/04/08 06:14:39;;;;;;;11.33;2.50;;;9.10;99.90;;;;;;5028176;28;20943;-74
2022/04/08 06:17:24;;;;;;;10.17;2.70;;;9.20;99.90;;;;;;5027376;28;20459;-74
2022/04/08 06:20:11;;;;;;;11.30;3.50;;;9.20;99.90;;;;;;5040162;28;20408;-73
2022/04/08 06:22:57;;;;;;;10.10;2.63;;;9.30;99.90;;;;;;5035014;28;20466;-73
2022/04/08 06:25:44;;;;;;;8.37;4.20;;;9.10;99.90;;;;;;5023718;28;20492;-75
2022/04/08 06:28:30;;;;;;;12.40;2.43;;;9.10;99.90;;;;;;5027086;28;20500;-75
2022/04/08 06:31:15;;;;;;;12.60;3.63;;;9.10;99.90;;;;;;5038141;28;20942;-74
2022/04/08 06:34:01;;;;;;;19.77;4.90;;;9.00;99.90;;;;;;5034500;28;20943;-75
2022/04/08 06:36:47;;;;;;;5.97;2.47;;;9.10;99.90;;;;;;5022989;28;20523;-76
2022/04/08 06:39:32;;;;;;;15.33;2.50;;;9.20;99.90;;;;;;5029938;28;20444;-75
2022/04/08 06:42:19;;;;;;;11.93;4.10;;;9.20;99.90;;;;;;5031135;28;20635;-75
2022/04/08 06:45:07;;;;;;;8.93;2.37;;;9.20;99.90;;;;;;5030606;28;20512;-74
2022/04/08 06:47:53;;;;;;;11.07;2.87;;;9.20;99.90;;;;;;5032854;28;20457;-73
2022/04/08 06:50:39;;;;;;;7.70;2.30;;;9.40;99.90;;;;;;5033473;28;20947;-75
2022/04/08 06:53:24;;;;;;;21.13;2.87;;;9.50;99.90;;;;;;5027485;28;20435;-75
2022/04/08 06:56:10;;;;;;;13.57;3.20;;;9.40;99.90;;;;;;5025209;28;20452;-74
2022/04/08 06:58:57;;;;;;;12.77;2.70;;;9.40;99.90;;;;;;5031789;28;20423;-74
2022/04/08 07:01:43;;;;;;;13.73;2.53;;;9.30;99.90;;;;;;5029107;28;20444;-75
2022/04/08 07:04:29;;;;;;;13.03;2.97;;;9.30;99.90;;;;;;5030791;28;20466;-74
2022/04/08 07:07:14;;;;;;;15.60;2.77;;;9.20;99.90;;;;;;5031313;28;20521;-74
2022/04/08 07:10:00;;;;;;;9.63;2.63;;;9.20;99.90;;;;;;5025471;28;20491;-75
2022/04/08 07:12:46;;;;;;;14.50;2.60;;;9.30;99.90;;;;;;5029185;28;20852;-75
2022/04/08 07:15:33;;;;;;;19.70;2.73;;;9.40;99.90;;;;;;5024971;28;20424;-75
2022/04/08 07:18:21;;;;;;;10.70;2.53;;;9.40;99.90;;;;;;5028687;28;20432;-74
2022/04/08 07:21:07;;;;;;;15.27;2.43;;;9.50;99.90;;;;;;5033190;28;20934;-75
2022/04/08 07:23:53;;;;;;;7.80;3.00;;;9.50;99.90;;;;;;5025481;28;20513;-75
2022/04/08 07:26:38;;;;;;;18.43;2.37;;;9.50;99.90;;;;;;5029630;28;20427;-75
2022/04/08 07:29:24;;;;;;;9.60;2.50;;;9.50;99.90;;;;;;5035662;28;20490;-75
2022/04/08 07:32:12;;;;;;;6.93;3.00;;;9.60;99.90;;;;;;5034466;28;20415;-74
2022/04/08 07:34:57;;;;;;;10.97;2.40;;;9.50;99.90;;;;;;5027492;28;20520;-74
2022/04/08 07:37:43;;;;;;;11.00;2.43;;;9.50;99.90;;;;;;5025982;28;20459;-75
2022/04/08 07:40:28;;;;;;;9.60;2.73;;;9.50;99.90;;;;;;5031902;28;20396;-75
2022/04/08 07:43:15;;;;;;;7.17;2.50;;;9.50;99.90;;;;;;5031275;28;20531;-73
2022/04/08 07:46:01;;;;;;;16.37;3.00;;;9.50;99.90;;;;;;5031254;28;20889;-75
2022/04/08 07:48:48;;;;;;;9.13;2.37;;;9.70;99.90;;;;;;5031871;28;20427;-75
2022/04/08 07:51:33;;;;;;;8.93;2.83;;;9.70;99.90;;;;;;5032259;28;20783;-74
2022/04/08 07:54:19;;;;;;;15.33;2.67;;;9.80;99.90;;;;;;5024251;28;20800;-75
2022/04/08 07:57:05;;;;;;;14.20;2.63;;;9.60;99.90;;;;;;5032117;28;20451;-75
2022/04/08 07:59:51;;;;;;;10.20;2.77;;;9.80;99.90;;;;;;5027562;28;20416;-75
2022/04/08 08:02:37;;;;;;;15.30;2.90;;;9.80;99.90;;;;;;5029511;28;20442;-74
2022/04/08 08:05:24;;;;;;;10.07;2.70;;;9.80;99.90;;;;;;5025359;28;20559;-75
2022/04/08 08:08:10;;;;;;;11.80;2.80;;;9.80;99.90;;;;;;5028746;28;20436;-75
2022/04/08 08:10:56;;;;;;;19.90;3.00;;;9.80;99.90;;;;;;5030313;28;20405;-75
2022/04/08 08:13:41;;;;;;;9.23;2.23;;;9.80;99.90;;;;;;5025895;28;20420;-75
2022/04/08 08:16:26;;;;;;;7.67;2.33;;;9.80;99.90;;;;;;5021989;28;20433;-74
2022/04/08 08:19:12;;;;;;;12.10;2.83;;;9.80;99.90;;;;;;5027817;28;20435;-75
2022/04/08 08:21:59;;;;;;;5.30;2.60;;;9.70;99.90;;;;;;5029272;28;20534;-75
2022/04/08 08:24:45;;;;;;;10.53;2.67;;;9.70;99.90;;;;;;5022820;28;20621;-75
2022/04/08 08:27:37;;;;;;;14.53;2.80;;;9.70;99.90;;;;;;5027060;28;20526;-73
2022/04/08 08:30:23;;;;;;;12.03;2.60;;;9.70;99.90;;;;;;5028114;28;20530;-75
2022/04/08 08:33:10;;;;;;;6.80;2.50;;;9.70;99.90;;;;;;5027511;28;20420;-75
2022/04/08 08:35:56;;;;;;;10.50;3.00;;;9.60;99.90;;;;;;5024448;28;20444;-75
2022/04/08 08:38:44;;;;;;;10.20;3.10;;;9.70;99.90;;;;;;5028473;28;20531;-75
2022/04/08 08:41:31;;;;;;;9.33;2.73;;;9.80;99.90;;;;;;5028925;28;20449;-75
2022/04/08 08:44:19;;;;;;;5.73;2.70;;;9.80;99.90;;;;;;5021538;28;20468;-75
2022/04/08 08:47:09;;;;;;;8.77;2.70;;;9.90;99.90;;;;;;5028526;28;20526;-75
2022/04/08 08:49:56;;;;;;;7.37;2.53;;;9.80;99.90;;;;;;5029353;28;20539;-75
2022/04/08 08:52:43;;;;;;;7.47;3.67;;;9.80;99.90;;;;;;5031610;28;20436;-73
2022/04/08 08:55:31;;;;;;;9.20;2.80;;;9.80;99.90;;;;;;5027279;28;20431;-74
2022/04/08 08:58:17;;;;;;;6.70;2.30;;;9.80;99.90;;;;;;5030851;28;20458;-75
2022/04/08 09:01:02;;;;;;;21.70;4.00;;;9.90;99.90;;;;;;5028045;28;20962;-75
2022/04/08 09:03:48;;;;;;;10.80;3.10;;;10.00;99.90;;;;;;5023719;28;20444;-74
2022/04/08 09:06:41;;;;;;;10.73;2.10;;;10.10;99.90;;;;;;5026621;28;20466;-75
2022/04/08 09:09:31;;;;;;;9.10;2.77;;;10.10;99.90;;;;;;5027094;28;20495;-75
2022/04/08 09:12:19;;;;;;;7.53;2.57;;;10.00;99.90;;;;;;5023924;28;20424;-74
2022/04/08 09:15:06;;;;;;;13.03;2.80;;;10.00;99.90;;;;;;5028460;28;20407;-74
2022/04/08 09:17:52;;;;;;;10.33;2.60;;;9.90;99.90;;;;;;5028774;28;20975;-75
2022/04/08 09:20:42;;;;;;;14.33;2.20;;;9.80;99.90;;;;;;5028729;28;20448;-75
2022/04/08 09:23:31;;;;;;;13.93;2.13;;;9.60;99.90;;;;;;5023081;28;20447;-75
2022/04/08 09:26:16;;;;;;;9.57;2.27;;;9.60;99.90;;;;;;5031045;28;20452;-75
2022/04/08 09:29:04;;;;;;;8.47;2.37;;;9.60;99.90;;;;;;5028165;28;20523;-75
2022/04/08 09:31:50;;;;;;;6.80;2.40;;;9.60;99.90;;;;;;5025026;28;20988;-74
2022/04/08 09:34:36;;;;;;;6.20;2.00;;;9.50;99.90;;;;;;5027498;28;20461;-75
2022/04/08 09:37:21;;;;;;;10.17;4.60;;;9.10;99.90;;;;;;5029962;28;20455;-75
2022/04/08 09:40:10;;;;;;;13.50;3.70;;;9.00;99.90;;;;;;5027546;28;20432;-75
2022/04/08 09:42:56;;;;;;;11.83;2.23;;;9.00;99.90;;;;;;5028791;28;20432;-75
2022/04/08 09:45:45;;;;;;;5.90;1.97;;;9.00;99.90;;;;;;5031151;28;21063;-75
2022/04/08 09:48:31;;;;;;;10.37;2.20;;;8.80;99.90;;;;;;5031175;28;20432;-74
2022/04/08 09:51:20;;;;;;;7.97;2.00;;;8.60;99.90;;;;;;5032993;28;20965;-75
2022/04/08 09:54:07;;;;;;;4.73;1.93;;;8.70;99.90;;;;;;5025258;28;20789;-74
2022/04/08 09:56:57;;;;;;;10.53;2.47;;;8.70;99.90;;;;;;5031463;28;20457;-75
2022/04/08 09:59:46;;;;;;;4.33;1.80;;;8.80;99.90;;;;;;5031030;28;20985;-75
2022/04/08 10:02:36;;;;;;;3.00;2.00;;;8.80;99.90;;;;;;5031247;28;20810;-74
2022/04/08 10:05:23;;;;;;;6.57;2.37;;;8.80;99.90;;;;;;5031410;28;20637;-74
2022/04/08 10:08:09;;;;;;;8.60;1.80;;;8.80;99.90;;;;;;5033150;28;20459;-75
2022/04/08 10:11:05;;;;;;;4.83;1.50;;;8.80;99.90;;;;;;5031777;28;20448;-74
2022/04/08 10:14:01;;;;;;;4.43;2.00;;;8.90;99.90;;;;;;5030701;28;20447;-75
2022/04/08 10:16:51;;;;;;;6.13;2.17;;;8.70;99.90;;;;;;5030508;28;20475;-75
2022/04/08 10:19:38;;;;;;;6.57;2.97;;;8.60;99.90;;;;;;5033001;28;20515;-75
2022/04/08 10:22:24;;;;;;;5.50;2.07;;;8.60;99.90;;;;;;5025777;28;20537;-75
2022/04/08 10:25:15;;;;;;;6.40;1.70;;;8.60;99.90;;;;;;5030638;28;20452;-75
2022/04/08 10:28:01;;;;;;;3.20;2.13;;;8.70;99.90;;;;;;5031995;28;20467;-75
2022/04/08 10:30:48;;;;;;;3.33;2.07;;;8.80;99.90;;;;;;5030606;28;20464;-74
2022/04/08 10:33:34;;;;;;;6.97;1.90;;;8.90;99.90;;;;;;5027251;28;21061;-73
2022/04/08 10:36:32;;;;;;;8.63;2.00;;;8.90;99.90;;;;;;5029538;28;20592;-75
2022/04/08 10:39:20;;;;;;;10.53;2.70;;;9.00;99.90;;;;;;5031930;28;20415;-75
2022/04/08 10:42:08;;;;;;;3.20;1.77;;;8.90;99.90;;;;;;5027002;28;20453;-75
2022/04/08 10:44:54;;;;;;;7.30;2.23;;;8.70;99.90;;;;;;5030720;28;20473;-75
2022/04/08 10:47:48;;;;;;;5.13;1.63;;;8.50;99.90;;;;;;5028740;28;20991;-75
2022/04/08 10:50:35;;;;;;;4.77;1.70;;;8.50;99.90;;;;;;5029087;28;20478;-74
2022/04/08 10:53:24;;;;;;;3.80;1.60;;;8.50;99.90;;;;;;5028497;28;20510;-74
2022/04/08 10:56:13;;;;;;;5.80;1.60;;;8.30;99.90;;;;;;5031598;28;20780;-75
2022/04/08 10:59:00;;;;;;;5.67;2.20;;;8.30;99.90;;;;;;5030827;28;21963;-75
2022/04/08 11:01:48;;;;;;;4.43;1.90;;;8.30;99.90;;;;;;5025097;28;20419;-75
2022/04/08 11:04:34;;;;;;;3.87;1.87;;;8.20;99.90;;;;;;5029515;28;20443;-74
2022/04/08 11:07:20;;;;;;;4.43;2.00;;;8.10;99.90;;;;;;5031038;28;20916;-75
2022/04/08 11:10:10;;;;;;;7.63;2.80;;;7.80;99.90;;;;;;5032598;28;20442;-73
2022/04/08 11:12:56;;;;;;;5.03;2.07;;;7.90;99.90;;;;;;5029783;28;20423;-75
2022/04/08 11:15:44;;;;;;;4.20;2.10;;;7.90;99.90;;;;;;5033459;28;20909;-75
2022/04/08 11:18:30;;;;;;;3.67;1.60;;;8.00;99.90;;;;;;5030370;28;20447;-75
2022/04/08 11:21:19;;;;;;;6.23;1.80;;;8.00;99.90;;;;;;5028394;28;20562;-75
2022/04/08 11:24:06;;;;;;;5.03;1.80;;;8.10;99.90;;;;;;5029266;28;20856;-74
2022/04/08 11:26:54;;;;;;;4.33;1.77;;;8.20;99.90;;;;;;5028525;28;20470;-75
2022/04/08 11:29:40;;;;;;;2.80;1.70;;;8.30;99.90;;;;;;5028299;28;20439;-75
2022/04/08 11:32:30;;;;;;;8.13;2.33;;;8.40;99.90;;;;;;5028423;28;20437;-75
2022/04/08 11:35:16;;;;;;;4.43;1.57;;;8.40;99.90;;;;;;5029675;28;20790;-75
2022/04/08 11:38:12;;;;;;;6.20;2.00;;;8.40;99.90;;;;;;5030874;28;20476;-75
2022/04/08 11:40:58;;;;;;;2.07;1.47;;;8.40;99.90;;;;;;5028023;28;20531;-75
2022/04/08 11:43:46;;;;;;;3.23;1.80;;;8.40;99.90;;;;;;5025992;28;20578;-76
2022/04/08 11:46:32;;;;;;;4.10;1.77;;;8.30;99.90;;;;;;5030529;28;20961;-74
2022/04/08 11:49:21;;;;;;;3.80;1.97;;;8.40;99.90;;;;;;5028193;28;20440;-75
2022/04/08 11:52:08;;;;;;;2.17;1.40;;;8.40;99.90;;;;;;5028979;28;20503;-74
2022/04/08 11:54:56;;;;;;;3.20;1.47;;;8.40;99.90;;;;;;5029544;28;20771;-75
2022/04/08 11:57:42;;;;;;;7.10;1.60;;;8.50;99.90;;;;;;5028686;28;20502;-76
2022/04/08 12:00:31;;;;;;;3.93;1.57;;;8.50;99.90;;;;;;5027271;28;20444;-76
2022/04/08 12:03:22;;;;;;;2.37;1.00;;;8.50;99.90;;;;;;5029154;28;20403;-75
2022/04/08 12:06:09;;;;;;;2.97;1.40;;;8.50;99.90;;;;;;5028525;28;20437;-76
2022/04/08 12:08:55;;;;;;;4.40;1.50;;;8.50;99.90;;;;;;5032439;28;20448;-76
2022/04/08 12:11:42;;;;;;;3.83;1.33;;;8.50;99.90;;;;;;5023716;28;20554;-75
2022/04/08 12:14:30;;;;;;;2.13;1.40;;;8.50;99.90;;;;;;5029597;28;20497;-76
2022/04/08 12:17:17;;;;;;;3.93;1.40;;;8.50;99.90;;;;;;5025582;28;20459;-75
2022/04/08 12:20:03;;;;;;;4.40;1.77;;;8.50;99.90;;;;;;5024926;28;20429;-75
2022/04/08 12:22:50;;;;;;;2.97;1.00;;;8.50;99.90;;;;;;5026946;28;20799;-75
2022/04/08 12:25:37;;;;;;;2.07;0.80;;;8.20;99.90;;;;;;5028445;28;21003;-76
2022/04/08 12:28:23;;;;;;;2.03;0.77;;;8.10;99.90;;;;;;5028993;28;20439;-76
2022/04/08 12:31:13;;;;;;;2.00;0.90;;;8.00;99.90;;;;;;5027043;28;20418;-75
2022/04/08 12:34:02;;;;;;;1.80;0.80;;;7.90;99.90;;;;;;5029767;28;20427;-75
2022/04/08 12:36:49;;;;;;;3.20;1.07;;;7.90;99.90;;;;;;5030119;28;20434;-76
2022/04/08 12:39:35;;;;;;;2.33;1.00;;;7.90;99.90;;;;;;5022541;28;20474;-77
2022/04/08 12:42:20;;;;;;;1.97;1.00;;;7.80;99.90;;;;;;5028399;28;20436;-75
2022/04/08 12:45:07;;;;;;;2.30;1.10;;;7.80;99.90;;;;;;5025096;28;20506;-72
2022/04/08 12:47:53;;;;;;;2.47;1.33;;;7.80;99.90;;;;;;5023506;28;20468;-74
2022/04/08 12:50:40;;;;;;;1.93;0.93;;;7.80;99.90;;;;;;5026352;28;21119;-75
2022/04/08 12:53:29;;;;;;;2.17;0.97;;;7.80;99.90;;;;;;5026387;28;20460;-75
2022/04/08 12:56:14;;;;;;;1.30;0.67;;;7.80;99.90;;;;;;5028721;28;20506;-75
2022/04/08 12:59:01;;;;;;;2.17;0.90;;;7.60;99.90;;;;;;5021841;28;20419;-74
2022/04/08 13:01:46;;;;;;;3.40;1.33;;;7.40;99.90;;;;;;5029145;28;20479;-75
2022/04/08 13:04:32;;;;;;;4.00;0.93;;;7.50;99.90;;;;;;5027393;28;21072;-75
2022/04/08 13:07:19;;;;;;;1.40;0.70;;;7.50;99.90;;;;;;5029914;28;20572;-75
2022/04/08 13:10:07;;;;;;;1.70;0.73;;;7.50;99.90;;;;;;5024468;28;20423;-74
2022/04/08 13:12:52;;;;;;;1.30;0.70;;;7.40;99.90;;;;;;5028539;28;20452;-74
2022/04/08 13:15:38;;;;;;;2.40;1.50;;;7.50;99.90;;;;;;5030698;28;20896;-75
2022/04/08 13:18:23;;;;;;;2.43;1.10;;;7.50;99.90;;;;;;5026521;28;20599;-76
2022/04/08 13:21:09;;;;;;;1.30;0.80;;;7.50;99.90;;;;;;5025179;28;20960;-76
2022/04/08 13:23:56;;;;;;;1.60;0.80;;;7.40;99.90;;;;;;5037446;28;20805;-76
2022/04/08 13:26:42;;;;;;;2.33;0.80;;;7.30;99.90;;;;;;5015760;28;20395;-75
2022/04/08 13:29:28;;;;;;;2.40;1.13;;;7.40;99.90;;;;;;5026851;28;20551;-76
2022/04/08 13:32:14;;;;;;;1.40;0.80;;;7.50;99.90;;;;;;5035056;28;20429;-76
2022/04/08 13:34:59;;;;;;;1.40;0.90;;;7.30;99.90;;;;;;5035047;28;20470;-75
2022/04/08 13:37:45;;;;;;;1.60;0.70;;;7.30;99.90;;;;;;5035594;28;21079;-75
2022/04/08 13:40:32;;;;;;;1.50;0.77;;;7.40;99.90;;;;;;5021923;28;20772;-76
2022/04/08 13:43:18;;;;;;;1.43;0.60;;;7.30;99.90;;;;;;5034245;28;20444;-75
2022/04/08 13:46:04;;;;;;;1.40;0.80;;;7.30;99.90;;;;;;5034679;28;20431;-75
2022/04/08 13:48:50;;;;;;;2.37;0.90;;;7.20;99.90;;;;;;5029330;28;20487;-75
2022/04/08 13:51:36;;;;;;;1.53;0.90;;;7.00;99.90;;;;;;5032252;28;20436;-75
2022/04/08 13:54:22;;;;;;;1.27;0.53;;;6.90;99.90;;;;;;5032002;28;20527;-75
2022/04/08 13:57:10;;;;;;;1.20;0.60;;;6.80;99.90;;;;;;5028957;28;20446;-76
2022/04/08 13:59:55;;;;;;;1.30;0.70;;;6.90;99.90;;;;;;5029759;28;20444;-76
2022/04/08 14:02:41;;;;;;;1.40;0.80;;;6.90;99.90;;;;;;5034437;28;20551;-76
2022/04/08 14:05:27;;;;;;;1.40;0.83;;;6.90;99.90;;;;;;5032384;28;20815;-76
2022/04/08 14:08:13;;;;;;;2.10;1.10;;;6.90;99.90;;;;;;5026443;28;20472;-76
2022/04/08 14:11:01;;;;;;;1.90;1.00;;;6.90;99.90;;;;;;5027381;28;20440;-76
2022/04/08 14:13:48;;;;;;;1.90;0.90;;;6.90;99.90;;;;;;5027878;28;20448;-76
2022/04/08 14:16:34;;;;;;;2.20;1.30;;;6.90;99.90;;;;;;5031947;28;20519;-76
2022/04/08 14:19:19;;;;;;;1.70;1.20;;;6.90;99.90;;;;;;5028237;28;20600;-76
2022/04/08 14:22:06;;;;;;;2.23;1.30;;;6.90;99.90;;;;;;5030674;28;20422;-75
2022/04/08 14:24:53;;;;;;;2.97;2.10;;;6.80;99.90;;;;;;5026199;28;20540;-75
2022/04/08 14:27:38;;;;;;;3.27;1.90;;;6.80;99.90;;;;;;5027682;28;20465;-75
2022/04/08 14:30:26;;;;;;;2.10;1.20;;;6.70;99.90;;;;;;5029191;28;20455;-76
2022/04/08 14:33:11;;;;;;;4.30;1.10;;;6.80;99.90;;;;;;5029990;28;20570;-75